createdAt,value
2017-09-17T00:00:30.762Z,1007.06
2017-09-17T00:01:11.301Z,1007.06
2017-09-17T00:01:51.831Z,1007.06
2017-09-17T00:02:32.360Z,1007.06
2017-09-17T00:03:12.905Z,1007.07
2017-09-17T00:03:53.439Z,1007.07
2017-09-17T00:04:33.968Z,1007.06
2017-09-17T00:05:14.506Z,1007.07
2017-09-17T00:05:55.033Z,1007.09
2017-09-17T00:06:35.580Z,1007.07
2017-09-17T00:07:16.111Z,1007.11
2017-09-17T00:07:56.653Z,1007.05
2017-09-17T00:08:37.191Z,1007.09
2017-09-17T00:09:17.726Z,1007.08
2017-09-17T00:09:58.258Z,1007.06
2017-09-17T00:10:38.787Z,1007.08
2017-09-17T00:11:19.314Z,1007.08
2017-09-17T00:11:59.854Z,1007.06
2017-09-17T00:12:40.393Z,1007.08
2017-09-17T00:13:20.932Z,1007.06
2017-09-17T00:14:01.475Z,1007.07
2017-09-17T00:14:42.024Z,1007.06
2017-09-17T00:15:22.561Z,1007.07
2017-09-17T00:16:03.084Z,1007.05
2017-09-17T00:16:43.619Z,1007.06
2017-09-17T00:17:24.145Z,1007.01
2017-09-17T00:18:04.698Z,1007.03
2017-09-17T00:18:45.233Z,1007.03
2017-09-17T00:19:25.773Z,1007.01
2017-09-17T00:20:06.309Z,1007.03
2017-09-17T00:20:53.608Z,1007.03
2017-09-17T00:21:34.151Z,1007.02
2017-09-17T00:22:14.685Z,1007.02
2017-09-17T00:22:55.225Z,1006.99
2017-09-17T00:23:35.797Z,1007
2017-09-17T00:24:16.339Z,1007
2017-09-17T00:24:56.876Z,1007.02
2017-09-17T00:25:37.419Z,1006.97
2017-09-17T00:26:17.955Z,1006.99
2017-09-17T00:26:58.493Z,1007
2017-09-17T00:27:39.035Z,1006.98
2017-09-17T00:28:19.571Z,1006.96
2017-09-17T00:29:00.107Z,1006.96
2017-09-17T00:29:40.641Z,1006.93
2017-09-17T00:30:21.176Z,1006.93
2017-09-17T00:31:01.711Z,1006.92
2017-09-17T00:31:42.245Z,1006.92
2017-09-17T00:32:22.785Z,1006.93
2017-09-17T00:33:03.321Z,1006.97
2017-09-17T00:33:43.851Z,1006.91
2017-09-17T00:34:24.390Z,1006.93
2017-09-17T00:35:04.924Z,1006.93
2017-09-17T00:35:45.460Z,1006.94
2017-09-17T00:36:25.997Z,1006.88
2017-09-17T00:37:06.541Z,1006.94
2017-09-17T00:37:47.078Z,1006.94
2017-09-17T00:38:27.614Z,1006.93
2017-09-17T00:39:08.152Z,1006.95
2017-09-17T00:39:48.688Z,1006.95
2017-09-17T00:40:29.227Z,1006.93
2017-09-17T00:41:09.765Z,1006.93
2017-09-17T00:41:50.302Z,1006.95
2017-09-17T00:42:30.844Z,1006.93
2017-09-17T00:43:11.374Z,1006.92
2017-09-17T00:43:51.920Z,1006.92
2017-09-17T00:44:32.457Z,1006.92
2017-09-17T00:45:12.993Z,1006.92
2017-09-17T00:45:53.529Z,1006.92
2017-09-17T00:46:34.067Z,1006.93
2017-09-17T00:47:14.608Z,1006.89
2017-09-17T00:47:55.149Z,1006.88
2017-09-17T00:48:35.683Z,1006.86
2017-09-17T00:49:16.230Z,1006.91
2017-09-17T00:49:56.767Z,1006.91
2017-09-17T00:50:37.304Z,1006.89
2017-09-17T00:51:17.844Z,1006.91
2017-09-17T00:51:58.386Z,1006.89
2017-09-17T00:52:38.921Z,1006.89
2017-09-17T00:53:19.460Z,1006.92
2017-09-17T00:54:00.001Z,1006.88
2017-09-17T00:54:40.541Z,1006.85
2017-09-17T00:55:21.079Z,1006.85
2017-09-17T00:56:01.620Z,1006.87
2017-09-17T00:56:42.161Z,1006.87
2017-09-17T00:57:22.774Z,1006.84
2017-09-17T00:58:03.305Z,1006.83
2017-09-17T00:58:43.847Z,1006.83
2017-09-17T00:59:24.386Z,1006.78
2017-09-17T01:00:04.928Z,1006.8
2017-09-17T01:00:45.463Z,1006.8
2017-09-17T01:01:26.005Z,1006.79
2017-09-17T01:02:06.548Z,1006.76
2017-09-17T01:02:47.083Z,1006.76
2017-09-17T01:03:27.644Z,1006.75
2017-09-17T01:04:08.158Z,1006.75
2017-09-17T01:04:48.692Z,1006.74
2017-09-17T01:05:29.231Z,1006.72
2017-09-17T01:06:09.768Z,1006.75
2017-09-17T01:06:50.307Z,1006.75
2017-09-17T01:07:30.846Z,1006.73
2017-09-17T01:08:11.387Z,1006.72
2017-09-17T01:08:51.928Z,1006.79
2017-09-17T01:09:32.466Z,1006.74
2017-09-17T01:10:13.004Z,1006.76
2017-09-17T01:10:53.526Z,1006.78
2017-09-17T01:11:34.074Z,1006.77
2017-09-17T01:12:14.628Z,1006.78
2017-09-17T01:12:55.160Z,1006.78
2017-09-17T01:13:35.698Z,1006.78
2017-09-17T01:14:16.237Z,1006.73
2017-09-17T01:14:56.780Z,1006.75
2017-09-17T01:15:37.317Z,1006.76
2017-09-17T01:16:17.863Z,1006.76
2017-09-17T01:16:58.402Z,1006.77
2017-09-17T01:17:38.935Z,1006.76
2017-09-17T01:18:19.477Z,1006.79
2017-09-17T01:19:00.020Z,1006.79
2017-09-17T01:19:40.551Z,1006.8
2017-09-17T01:20:21.083Z,1006.78
2017-09-17T01:21:01.619Z,1006.79
2017-09-17T01:21:42.158Z,1006.8
2017-09-17T01:22:22.698Z,1006.78
2017-09-17T01:23:03.240Z,1006.8
2017-09-17T01:23:43.776Z,1006.74
2017-09-17T01:24:24.318Z,1006.78
2017-09-17T01:25:04.867Z,1006.74
2017-09-17T01:25:45.406Z,1006.76
2017-09-17T01:26:25.945Z,1006.7
2017-09-17T01:27:06.477Z,1006.75
2017-09-17T01:27:47.013Z,1006.73
2017-09-17T01:28:27.553Z,1006.71
2017-09-17T01:29:08.092Z,1006.76
2017-09-17T01:29:48.628Z,1006.75
2017-09-17T01:30:29.173Z,1006.75
2017-09-17T01:31:09.710Z,1006.71
2017-09-17T01:31:50.250Z,1006.72
2017-09-17T01:32:30.792Z,1006.73
2017-09-17T01:33:11.326Z,1006.72
2017-09-17T01:33:51.864Z,1006.73
2017-09-17T01:34:32.396Z,1006.75
2017-09-17T01:35:12.932Z,1006.77
2017-09-17T01:35:53.478Z,1006.75
2017-09-17T01:36:34.008Z,1006.74
2017-09-17T01:37:14.544Z,1006.71
2017-09-17T01:37:55.075Z,1006.69
2017-09-17T01:38:35.621Z,1006.68
2017-09-17T01:39:16.165Z,1006.72
2017-09-17T01:39:56.703Z,1006.71
2017-09-17T01:40:37.238Z,1006.69
2017-09-17T01:41:17.783Z,1006.66
2017-09-17T01:41:58.312Z,1006.71
2017-09-17T01:42:38.851Z,1006.68
2017-09-17T01:43:19.376Z,1006.68
2017-09-17T01:43:59.917Z,1006.71
2017-09-17T01:44:40.454Z,1006.66
2017-09-17T01:45:20.995Z,1006.7
2017-09-17T01:46:01.536Z,1006.69
2017-09-17T01:46:42.115Z,1006.69
2017-09-17T01:47:22.645Z,1006.69
2017-09-17T01:48:03.182Z,1006.7
2017-09-17T01:48:43.718Z,1006.68
2017-09-17T01:49:24.256Z,1006.72
2017-09-17T01:50:04.792Z,1006.73
2017-09-17T01:50:45.332Z,1006.71
2017-09-17T01:51:25.863Z,1006.73
2017-09-17T01:52:06.392Z,1006.71
2017-09-17T01:52:46.933Z,1006.71
2017-09-17T01:53:27.471Z,1006.71
2017-09-17T01:54:08.017Z,1006.69
2017-09-17T01:54:48.539Z,1006.71
2017-09-17T01:55:29.082Z,1006.68
2017-09-17T01:56:09.618Z,1006.68
2017-09-17T01:56:50.148Z,1006.72
2017-09-17T01:57:30.690Z,1006.71
2017-09-17T01:58:11.235Z,1006.74
2017-09-17T01:58:51.782Z,1006.75
2017-09-17T01:59:32.312Z,1006.74
2017-09-17T02:00:12.852Z,1006.76
2017-09-17T02:00:53.382Z,1006.73
2017-09-17T02:01:33.920Z,1006.75
2017-09-17T02:02:14.447Z,1006.77
2017-09-17T02:02:54.993Z,1006.77
2017-09-17T02:03:35.530Z,1006.79
2017-09-17T02:04:16.068Z,1006.77
2017-09-17T02:04:56.598Z,1006.81
2017-09-17T02:05:37.136Z,1006.79
2017-09-17T02:06:17.672Z,1006.76
2017-09-17T02:06:58.215Z,1006.8
2017-09-17T02:07:38.889Z,1006.78
2017-09-17T02:08:19.450Z,1006.78
2017-09-17T02:09:00.044Z,1006.72
2017-09-17T02:09:40.581Z,1006.75
2017-09-17T02:10:21.107Z,1006.73
2017-09-17T02:11:01.703Z,1006.75
2017-09-17T02:11:42.245Z,1006.75
2017-09-17T02:12:22.819Z,1006.76
2017-09-17T02:13:03.345Z,1006.74
2017-09-17T02:13:43.920Z,1006.75
2017-09-17T02:14:24.456Z,1006.72
2017-09-17T02:15:04.997Z,1006.7
2017-09-17T02:15:45.537Z,1006.75
2017-09-17T02:16:26.063Z,1006.74
2017-09-17T02:17:06.594Z,1006.75
2017-09-17T02:17:47.137Z,1006.79
2017-09-17T02:18:27.673Z,1006.76
2017-09-17T02:19:08.211Z,1006.78
2017-09-17T02:19:48.751Z,1006.79
2017-09-17T02:20:29.285Z,1006.79
2017-09-17T02:21:09.814Z,1006.84
2017-09-17T02:21:50.344Z,1006.78
2017-09-17T02:22:30.884Z,1006.82
2017-09-17T02:23:11.426Z,1006.84
2017-09-17T02:23:51.962Z,1006.85
2017-09-17T02:24:32.498Z,1006.84
2017-09-17T02:25:13.035Z,1006.84
2017-09-17T02:25:53.570Z,1006.85
2017-09-17T02:26:34.113Z,1006.87
2017-09-17T02:27:14.653Z,1006.84
2017-09-17T02:27:55.192Z,1006.87
2017-09-17T02:28:35.733Z,1006.86
2017-09-17T02:29:16.271Z,1006.91
2017-09-17T02:29:56.808Z,1006.85
2017-09-17T02:30:37.350Z,1006.85
2017-09-17T02:31:17.889Z,1006.87
2017-09-17T02:31:58.426Z,1006.84
2017-09-17T02:32:38.971Z,1006.88
2017-09-17T02:33:19.503Z,1006.92
2017-09-17T02:34:00.047Z,1006.87
2017-09-17T02:34:40.592Z,1006.87
2017-09-17T02:35:21.128Z,1006.89
2017-09-17T02:36:01.663Z,1006.86
2017-09-17T02:36:42.206Z,1006.88
2017-09-17T02:37:22.736Z,1006.89
2017-09-17T02:38:03.279Z,1006.9
2017-09-17T02:38:43.811Z,1006.9
2017-09-17T02:39:24.353Z,1006.89
2017-09-17T02:40:04.894Z,1006.92
2017-09-17T02:40:45.431Z,1006.91
2017-09-17T02:41:25.963Z,1006.86
2017-09-17T02:42:06.493Z,1006.89
2017-09-17T02:42:47.027Z,1006.86
2017-09-17T02:43:27.565Z,1006.86
2017-09-17T02:44:08.101Z,1006.86
2017-09-17T02:44:48.646Z,1006.86
2017-09-17T02:45:29.181Z,1006.87
2017-09-17T02:46:09.716Z,1006.86
2017-09-17T02:46:50.252Z,1006.86
2017-09-17T02:47:30.788Z,1006.86
2017-09-17T02:48:11.329Z,1006.87
2017-09-17T02:48:51.871Z,1006.86
2017-09-17T02:49:32.404Z,1006.88
2017-09-17T02:50:12.948Z,1006.9
2017-09-17T02:50:53.484Z,1006.87
2017-09-17T02:51:34.022Z,1006.89
2017-09-17T02:52:14.551Z,1006.86
2017-09-17T02:52:55.095Z,1006.87
2017-09-17T02:53:35.637Z,1006.86
2017-09-17T02:54:16.177Z,1006.84
2017-09-17T02:54:56.723Z,1006.88
2017-09-17T02:55:37.256Z,1006.89
2017-09-17T02:56:17.782Z,1006.85
2017-09-17T02:56:58.322Z,1006.85
2017-09-17T02:57:38.853Z,1006.83
2017-09-17T02:58:19.384Z,1006.85
2017-09-17T02:58:59.923Z,1006.81
2017-09-17T02:59:40.455Z,1006.82
2017-09-17T03:00:20.995Z,1006.83
2017-09-17T03:01:01.534Z,1006.83
2017-09-17T03:01:42.076Z,1006.82
2017-09-17T03:02:22.612Z,1006.82
2017-09-17T03:03:03.151Z,1006.84
2017-09-17T03:03:43.684Z,1006.82
2017-09-17T03:04:24.227Z,1006.84
2017-09-17T03:05:04.763Z,1006.84
2017-09-17T03:05:45.302Z,1006.82
2017-09-17T03:06:25.841Z,1006.82
2017-09-17T03:07:06.381Z,1006.82
2017-09-17T03:07:46.909Z,1006.84
2017-09-17T03:08:27.440Z,1006.85
2017-09-17T03:09:07.985Z,1006.85
2017-09-17T03:09:48.520Z,1006.81
2017-09-17T03:10:29.065Z,1006.87
2017-09-17T03:11:09.607Z,1006.82
2017-09-17T03:11:50.145Z,1006.81
2017-09-17T03:12:30.688Z,1006.85
2017-09-17T03:13:11.223Z,1006.83
2017-09-17T03:13:51.755Z,1006.83
2017-09-17T03:14:32.290Z,1006.84
2017-09-17T03:15:12.823Z,1006.86
2017-09-17T03:15:53.395Z,1006.82
2017-09-17T03:16:33.923Z,1006.87
2017-09-17T03:17:14.458Z,1006.84
2017-09-17T03:17:55.007Z,1006.87
2017-09-17T03:18:35.539Z,1006.85
2017-09-17T03:19:16.087Z,1006.83
2017-09-17T03:19:56.615Z,1006.87
2017-09-17T03:20:37.146Z,1006.89
2017-09-17T03:21:17.696Z,1006.86
2017-09-17T03:21:58.231Z,1006.88
2017-09-17T03:22:38.768Z,1006.85
2017-09-17T03:23:19.306Z,1006.87
2017-09-17T03:23:59.845Z,1006.82
2017-09-17T03:24:40.383Z,1006.83
2017-09-17T03:25:20.917Z,1006.86
2017-09-17T03:26:01.452Z,1006.87
2017-09-17T03:26:41.995Z,1006.82
2017-09-17T03:27:22.531Z,1006.81
2017-09-17T03:28:03.063Z,1006.82
2017-09-17T03:28:43.594Z,1006.82
2017-09-17T03:29:24.139Z,1006.82
2017-09-17T03:30:04.738Z,1006.81
2017-09-17T03:30:45.272Z,1006.85
2017-09-17T03:31:25.812Z,1006.83
2017-09-17T03:32:06.353Z,1006.8
2017-09-17T03:32:46.889Z,1006.78
2017-09-17T03:33:27.428Z,1006.82
2017-09-17T03:34:07.961Z,1006.82
2017-09-17T03:34:48.491Z,1006.83
2017-09-17T03:35:29.029Z,1006.8
2017-09-17T03:36:09.567Z,1006.82
2017-09-17T03:36:50.117Z,1006.8
2017-09-17T03:37:30.648Z,1006.81
2017-09-17T03:38:11.207Z,1006.81
2017-09-17T03:38:51.713Z,1006.85
2017-09-17T03:39:32.250Z,1006.84
2017-09-17T03:40:12.794Z,1006.8
2017-09-17T03:40:53.334Z,1006.82
2017-09-17T03:41:33.878Z,1006.83
2017-09-17T03:42:14.402Z,1006.85
2017-09-17T03:42:54.939Z,1006.85
2017-09-17T03:43:35.473Z,1006.83
2017-09-17T03:44:16.016Z,1006.85
2017-09-17T03:44:56.550Z,1006.82
2017-09-17T03:45:37.088Z,1006.83
2017-09-17T03:46:17.628Z,1006.83
2017-09-17T03:46:58.164Z,1006.84
2017-09-17T03:47:38.694Z,1006.85
2017-09-17T03:48:19.234Z,1006.84
2017-09-17T03:48:59.771Z,1006.83
2017-09-17T03:49:40.311Z,1006.83
2017-09-17T03:50:20.854Z,1006.84
2017-09-17T03:51:01.389Z,1006.84
2017-09-17T03:51:41.932Z,1006.8
2017-09-17T03:52:22.461Z,1006.83
2017-09-17T03:53:02.998Z,1006.79
2017-09-17T03:53:43.527Z,1006.83
2017-09-17T03:54:24.067Z,1006.82
2017-09-17T03:55:04.607Z,1006.81
2017-09-17T03:55:45.179Z,1006.82
2017-09-17T03:56:25.718Z,1006.81
2017-09-17T03:57:06.261Z,1006.83
2017-09-17T03:57:46.797Z,1006.81
2017-09-17T03:58:27.331Z,1006.84
2017-09-17T03:59:07.882Z,1006.82
2017-09-17T03:59:48.401Z,1006.82
2017-09-17T04:00:28.935Z,1006.81
2017-09-17T04:01:09.469Z,1006.79
2017-09-17T04:01:50.012Z,1006.82
2017-09-17T04:02:30.541Z,1006.78
2017-09-17T04:03:11.079Z,1006.78
2017-09-17T04:03:51.614Z,1006.83
2017-09-17T04:04:32.137Z,1006.77
2017-09-17T04:05:12.668Z,1006.78
2017-09-17T04:05:53.215Z,1006.79
2017-09-17T04:06:33.756Z,1006.79
2017-09-17T04:07:14.295Z,1006.78
2017-09-17T04:07:54.814Z,1006.77
2017-09-17T04:08:35.339Z,1006.74
2017-09-17T04:09:15.876Z,1006.75
2017-09-17T04:09:56.423Z,1006.79
2017-09-17T04:10:36.962Z,1006.79
2017-09-17T04:11:17.499Z,1006.77
2017-09-17T04:11:58.021Z,1006.76
2017-09-17T04:12:38.600Z,1006.82
2017-09-17T04:13:19.200Z,1006.82
2017-09-17T04:13:59.744Z,1006.8
2017-09-17T04:14:40.276Z,1006.79
2017-09-17T04:15:20.816Z,1006.8
2017-09-17T04:16:01.368Z,1006.83
2017-09-17T04:16:41.907Z,1006.79
2017-09-17T04:17:22.448Z,1006.79
2017-09-17T04:18:02.985Z,1006.79
2017-09-17T04:18:43.511Z,1006.81
2017-09-17T04:19:24.052Z,1006.85
2017-09-17T04:20:04.602Z,1006.86
2017-09-17T04:20:45.138Z,1006.81
2017-09-17T04:21:25.680Z,1006.84
2017-09-17T04:22:06.223Z,1006.83
2017-09-17T04:22:46.757Z,1006.87
2017-09-17T04:23:27.425Z,1006.89
2017-09-17T04:24:08.161Z,1006.85
2017-09-17T04:24:48.690Z,1006.85
2017-09-17T04:25:29.242Z,1006.89
2017-09-17T04:26:09.768Z,1006.9
2017-09-17T04:26:50.301Z,1006.91
2017-09-17T04:27:30.844Z,1006.89
2017-09-17T04:28:11.400Z,1006.9
2017-09-17T04:28:51.948Z,1006.94
2017-09-17T04:29:32.485Z,1006.94
2017-09-17T04:30:13.165Z,1006.96
2017-09-17T04:30:53.699Z,1006.97
2017-09-17T04:31:34.238Z,1006.98
2017-09-17T04:32:14.778Z,1006.97
2017-09-17T04:32:55.311Z,1006.94
2017-09-17T04:33:35.846Z,1006.91
2017-09-17T04:34:16.374Z,1006.96
2017-09-17T04:34:56.906Z,1007
2017-09-17T04:35:37.445Z,1006.96
2017-09-17T04:36:17.982Z,1006.96
2017-09-17T04:36:58.538Z,1006.99
2017-09-17T04:37:39.075Z,1006.96
2017-09-17T04:38:19.604Z,1006.98
2017-09-17T04:39:00.144Z,1006.98
2017-09-17T04:39:40.768Z,1006.97
2017-09-17T04:40:21.438Z,1006.97
2017-09-17T04:41:02.207Z,1006.99
2017-09-17T04:41:43.324Z,1006.97
2017-09-17T04:42:24.047Z,1006.97
2017-09-17T04:43:04.702Z,1006.98
2017-09-17T04:43:45.236Z,1006.98
2017-09-17T04:44:25.807Z,1007.02
2017-09-17T04:45:06.338Z,1007.02
2017-09-17T04:45:46.874Z,1007.02
2017-09-17T04:46:27.408Z,1007.01
2017-09-17T04:47:07.944Z,1007.02
2017-09-17T04:47:48.482Z,1006.95
2017-09-17T04:48:29.023Z,1006.99
2017-09-17T04:49:09.548Z,1007.02
2017-09-17T04:49:50.177Z,1007.01
2017-09-17T04:50:30.709Z,1007.01
2017-09-17T04:51:11.246Z,1007.04
2017-09-17T04:51:51.786Z,1007.06
2017-09-17T04:52:32.330Z,1007.08
2017-09-17T04:53:12.868Z,1007.06
2017-09-17T04:53:53.406Z,1007.08
2017-09-17T04:54:33.938Z,1007.12
2017-09-17T04:55:14.477Z,1007.14
2017-09-17T04:55:55.032Z,1007.12
2017-09-17T04:56:35.579Z,1007.14
2017-09-17T04:57:16.105Z,1007.13
2017-09-17T04:57:56.642Z,1007.15
2017-09-17T04:58:37.185Z,1007.16
2017-09-17T04:59:17.713Z,1007.19
2017-09-17T04:59:58.244Z,1007.18
2017-09-17T05:00:38.780Z,1007.19
2017-09-17T05:01:19.321Z,1007.19
2017-09-17T05:01:59.916Z,1007.22
2017-09-17T05:02:40.528Z,1007.24
2017-09-17T05:03:21.068Z,1007.22
2017-09-17T05:04:01.639Z,1007.23
2017-09-17T05:04:42.167Z,1007.2
2017-09-17T05:05:22.705Z,1007.18
2017-09-17T05:06:03.243Z,1007.19
2017-09-17T05:06:43.787Z,1007.18
2017-09-17T05:07:24.316Z,1007.19
2017-09-17T05:08:04.860Z,1007.19
2017-09-17T05:08:45.414Z,1007.19
2017-09-17T05:09:25.947Z,1007.22
2017-09-17T05:10:06.494Z,1007.21
2017-09-17T05:10:47.031Z,1007.22
2017-09-17T05:11:27.574Z,1007.22
2017-09-17T05:12:08.128Z,1007.21
2017-09-17T05:12:48.664Z,1007.25
2017-09-17T05:13:29.203Z,1007.21
2017-09-17T05:14:09.744Z,1007.23
2017-09-17T05:14:50.277Z,1007.22
2017-09-17T05:15:30.811Z,1007.24
2017-09-17T05:16:11.349Z,1007.25
2017-09-17T05:16:51.888Z,1007.23
2017-09-17T05:17:32.430Z,1007.23
2017-09-17T05:18:12.965Z,1007.22
2017-09-17T05:18:53.508Z,1007.22
2017-09-17T05:19:34.050Z,1007.21
2017-09-17T05:20:14.586Z,1007.19
2017-09-17T05:20:55.107Z,1007.22
2017-09-17T05:21:35.653Z,1007.27
2017-09-17T05:22:16.185Z,1007.25
2017-09-17T05:22:56.727Z,1007.22
2017-09-17T05:23:37.261Z,1007.25
2017-09-17T05:24:17.803Z,1007.25
2017-09-17T05:24:58.342Z,1007.3
2017-09-17T05:25:38.869Z,1007.26
2017-09-17T05:26:19.408Z,1007.27
2017-09-17T05:26:59.941Z,1007.27
2017-09-17T05:27:40.479Z,1007.26
2017-09-17T05:28:21.015Z,1007.29
2017-09-17T05:29:01.585Z,1007.32
2017-09-17T05:29:42.125Z,1007.33
2017-09-17T05:30:22.668Z,1007.33
2017-09-17T05:31:03.203Z,1007.35
2017-09-17T05:31:43.737Z,1007.33
2017-09-17T05:32:24.265Z,1007.33
2017-09-17T05:33:04.806Z,1007.33
2017-09-17T05:33:45.345Z,1007.36
2017-09-17T05:34:25.921Z,1007.36
2017-09-17T05:35:06.449Z,1007.34
2017-09-17T05:35:46.988Z,1007.33
2017-09-17T05:36:27.547Z,1007.32
2017-09-17T05:37:08.099Z,1007.32
2017-09-17T05:37:48.649Z,1007.36
2017-09-17T05:38:29.239Z,1007.34
2017-09-17T05:39:09.773Z,1007.35
2017-09-17T05:39:50.314Z,1007.34
2017-09-17T05:40:30.856Z,1007.34
2017-09-17T05:41:11.391Z,1007.37
2017-09-17T05:41:51.932Z,1007.35
2017-09-17T05:42:32.472Z,1007.35
2017-09-17T05:43:13.015Z,1007.36
2017-09-17T05:43:53.551Z,1007.38
2017-09-17T05:44:34.093Z,1007.41
2017-09-17T05:45:14.647Z,1007.4
2017-09-17T05:45:55.170Z,1007.42
2017-09-17T05:46:35.721Z,1007.43
2017-09-17T05:47:16.260Z,1007.39
2017-09-17T05:47:56.852Z,1007.44
2017-09-17T05:48:37.509Z,1007.44
2017-09-17T05:49:18.131Z,1007.42
2017-09-17T05:49:58.669Z,1007.44
2017-09-17T05:50:39.208Z,1007.43
2017-09-17T05:51:19.755Z,1007.44
2017-09-17T05:52:00.307Z,1007.45
2017-09-17T05:52:40.847Z,1007.47
2017-09-17T05:53:21.389Z,1007.44
2017-09-17T05:54:01.917Z,1007.46
2017-09-17T05:54:42.444Z,1007.47
2017-09-17T05:55:23.074Z,1007.49
2017-09-17T05:56:03.605Z,1007.49
2017-09-17T05:56:44.142Z,1007.49
2017-09-17T05:57:24.684Z,1007.47
2017-09-17T05:58:05.322Z,1007.49
2017-09-17T05:58:45.867Z,1007.52
2017-09-17T05:59:26.404Z,1007.51
2017-09-17T06:00:06.932Z,1007.55
2017-09-17T06:00:47.479Z,1007.53
2017-09-17T06:01:28.020Z,1007.54
2017-09-17T06:02:08.562Z,1007.6
2017-09-17T06:02:49.097Z,1007.59
2017-09-17T06:03:29.634Z,1007.55
2017-09-17T06:04:10.168Z,1007.61
2017-09-17T06:04:50.705Z,1007.57
2017-09-17T06:05:31.237Z,1007.59
2017-09-17T06:06:11.777Z,1007.59
2017-09-17T06:06:52.306Z,1007.56
2017-09-17T06:07:32.834Z,1007.58
2017-09-17T06:08:13.376Z,1007.59
2017-09-17T06:08:53.909Z,1007.61
2017-09-17T06:09:34.458Z,1007.62
2017-09-17T06:10:14.992Z,1007.64
2017-09-17T06:10:55.619Z,1007.62
2017-09-17T06:11:36.205Z,1007.65
2017-09-17T06:12:16.746Z,1007.66
2017-09-17T06:12:57.341Z,1007.67
2017-09-17T06:13:37.871Z,1007.68
2017-09-17T06:14:18.452Z,1007.68
2017-09-17T06:14:59.062Z,1007.68
2017-09-17T06:15:39.760Z,1007.71
2017-09-17T06:16:20.290Z,1007.72
2017-09-17T06:17:00.851Z,1007.71
2017-09-17T06:17:41.454Z,1007.74
2017-09-17T06:18:22.175Z,1007.72
2017-09-17T06:19:02.708Z,1007.73
2017-09-17T06:19:43.294Z,1007.76
2017-09-17T06:20:23.836Z,1007.75
2017-09-17T06:21:04.403Z,1007.77
2017-09-17T06:21:45.095Z,1007.75
2017-09-17T06:22:25.670Z,1007.77
2017-09-17T06:23:06.264Z,1007.75
2017-09-17T06:23:46.912Z,1007.79
2017-09-17T06:24:27.458Z,1007.79
2017-09-17T06:25:07.998Z,1007.8
2017-09-17T06:25:48.677Z,1007.82
2017-09-17T06:26:29.281Z,1007.82
2017-09-17T06:27:09.812Z,1007.81
2017-09-17T06:27:50.398Z,1007.81
2017-09-17T06:28:31.034Z,1007.83
2017-09-17T06:29:11.684Z,1007.89
2017-09-17T06:29:52.219Z,1007.85
2017-09-17T06:30:32.832Z,1007.81
2017-09-17T06:31:13.438Z,1007.87
2017-09-17T06:31:54.257Z,1007.84
2017-09-17T06:32:34.905Z,1007.84
2017-09-17T06:33:15.508Z,1007.87
2017-09-17T06:33:56.135Z,1007.84
2017-09-17T06:34:36.827Z,1007.83
2017-09-17T06:35:17.360Z,1007.86
2017-09-17T06:35:57.998Z,1007.85
2017-09-17T06:36:38.687Z,1007.87
2017-09-17T06:37:19.220Z,1007.83
2017-09-17T06:37:59.750Z,1007.81
2017-09-17T06:38:40.293Z,1007.84
2017-09-17T06:39:21.075Z,1007.81
2017-09-17T06:40:01.805Z,1007.78
2017-09-17T06:40:42.365Z,1007.81
2017-09-17T06:41:23.202Z,1007.8
2017-09-17T06:42:03.839Z,1007.83
2017-09-17T06:42:44.485Z,1007.8
2017-09-17T06:43:25.319Z,1007.8
2017-09-17T06:44:05.895Z,1007.83
2017-09-17T06:44:46.637Z,1007.8
2017-09-17T06:45:27.343Z,1007.82
2017-09-17T06:46:07.933Z,1007.78
2017-09-17T06:46:48.722Z,1007.81
2017-09-17T06:47:29.422Z,1007.82
2017-09-17T06:48:10.083Z,1007.82
2017-09-17T06:48:50.621Z,1007.8
2017-09-17T06:49:31.154Z,1007.81
2017-09-17T06:50:11.692Z,1007.81
2017-09-17T06:50:52.232Z,1007.79
2017-09-17T06:51:32.782Z,1007.78
2017-09-17T06:52:13.321Z,1007.82
2017-09-17T06:52:53.858Z,1007.77
2017-09-17T06:53:34.390Z,1007.76
2017-09-17T06:54:14.925Z,1007.81
2017-09-17T06:54:55.467Z,1007.78
2017-09-17T06:55:35.998Z,1007.78
2017-09-17T06:56:16.535Z,1007.79
2017-09-17T06:56:57.075Z,1007.81
2017-09-17T06:57:37.595Z,1007.79
2017-09-17T06:58:18.132Z,1007.8
2017-09-17T06:58:58.669Z,1007.8
2017-09-17T06:59:39.210Z,1007.83
2017-09-17T07:00:19.754Z,1007.84
2017-09-17T07:01:00.296Z,1007.83
2017-09-17T07:01:40.833Z,1007.85
2017-09-17T07:02:21.359Z,1007.86
2017-09-17T07:03:01.896Z,1007.84
2017-09-17T07:03:42.440Z,1007.86
2017-09-17T07:04:22.975Z,1007.87
2017-09-17T07:05:03.514Z,1007.89
2017-09-17T07:05:44.054Z,1007.88
2017-09-17T07:06:24.630Z,1007.87
2017-09-17T07:07:05.164Z,1007.86
2017-09-17T07:07:45.707Z,1007.83
2017-09-17T07:08:26.251Z,1007.88
2017-09-17T07:09:06.785Z,1007.84
2017-09-17T07:09:47.346Z,1007.85
2017-09-17T07:10:27.860Z,1007.74
2017-09-17T07:11:08.393Z,1007.87
2017-09-17T07:11:48.930Z,1007.88
2017-09-17T07:12:29.475Z,1007.83
2017-09-17T07:13:10.015Z,1007.85
2017-09-17T07:13:50.557Z,1007.88
2017-09-17T07:14:31.102Z,1007.85
2017-09-17T07:15:11.642Z,1007.83
2017-09-17T07:15:52.182Z,1007.8
2017-09-17T07:16:32.717Z,1007.86
2017-09-17T07:17:13.243Z,1007.85
2017-09-17T07:17:53.778Z,1007.84
2017-09-17T07:18:34.318Z,1007.86
2017-09-17T07:19:14.861Z,1007.88
2017-09-17T07:19:55.400Z,1007.89
2017-09-17T07:20:35.939Z,1007.92
2017-09-17T07:21:16.476Z,1007.89
2017-09-17T07:21:57.012Z,1007.89
2017-09-17T07:22:37.553Z,1007.92
2017-09-17T07:23:18.081Z,1007.93
2017-09-17T07:23:58.624Z,1007.92
2017-09-17T07:24:39.168Z,1007.92
2017-09-17T07:25:19.703Z,1007.93
2017-09-17T07:26:00.250Z,1007.95
2017-09-17T07:26:40.783Z,1007.97
2017-09-17T07:27:21.306Z,1007.93
2017-09-17T07:28:01.852Z,1007.95
2017-09-17T07:28:42.393Z,1007.94
2017-09-17T07:29:22.927Z,1007.93
2017-09-17T07:30:03.470Z,1007.97
2017-09-17T07:30:44.004Z,1007.95
2017-09-17T07:31:24.542Z,1007.94
2017-09-17T07:32:05.086Z,1007.95
2017-09-17T07:32:45.625Z,1007.95
2017-09-17T07:33:26.171Z,1007.93
2017-09-17T07:34:06.707Z,1007.94
2017-09-17T07:34:47.245Z,1007.94
2017-09-17T07:35:27.786Z,1007.96
2017-09-17T07:36:08.324Z,1007.96
2017-09-17T07:36:48.862Z,1007.98
2017-09-17T07:37:29.403Z,1007.99
2017-09-17T07:38:09.933Z,1007.95
2017-09-17T07:38:50.478Z,1007.99
2017-09-17T07:39:31.011Z,1007.96
2017-09-17T07:40:11.548Z,1007.99
2017-09-17T07:40:52.087Z,1007.99
2017-09-17T07:41:32.626Z,1007.97
2017-09-17T07:42:13.165Z,1007.97
2017-09-17T07:42:53.681Z,1008.01
2017-09-17T07:43:34.212Z,1008
2017-09-17T07:44:14.751Z,1008.01
2017-09-17T07:44:55.294Z,1008
2017-09-17T07:45:35.834Z,1007.99
2017-09-17T07:46:16.368Z,1008
2017-09-17T07:46:56.912Z,1008
2017-09-17T07:47:37.442Z,1008.01
2017-09-17T07:48:17.985Z,1008.01
2017-09-17T07:48:58.517Z,1008.03
2017-09-17T07:49:39.059Z,1008.01
2017-09-17T07:50:19.595Z,1007.96
2017-09-17T07:51:00.140Z,1008.01
2017-09-17T07:51:40.687Z,1008
2017-09-17T07:52:21.237Z,1008.02
2017-09-17T07:53:01.778Z,1008.04
2017-09-17T07:53:42.319Z,1008.04
2017-09-17T07:54:22.867Z,1008.03
2017-09-17T07:55:03.406Z,1008.05
2017-09-17T07:55:43.944Z,1008.07
2017-09-17T07:56:24.480Z,1008.04
2017-09-17T07:57:05.017Z,1008.07
2017-09-17T07:57:45.554Z,1008.06
2017-09-17T07:58:26.095Z,1008.09
2017-09-17T07:59:06.632Z,1008.1
2017-09-17T07:59:47.180Z,1008.06
2017-09-17T08:00:27.714Z,1008.04
2017-09-17T08:01:08.248Z,1008.07
2017-09-17T08:01:48.775Z,1008.06
2017-09-17T08:02:29.308Z,1008.02
2017-09-17T08:03:09.849Z,1008.05
2017-09-17T08:03:50.386Z,1008.06
2017-09-17T08:04:30.924Z,1008.05
2017-09-17T08:05:11.457Z,1008.12
2017-09-17T08:05:52.003Z,1008.09
2017-09-17T08:06:32.544Z,1008.14
2017-09-17T08:07:13.082Z,1008.16
2017-09-17T08:07:53.620Z,1008.15
2017-09-17T08:08:34.164Z,1008.2
2017-09-17T08:09:14.700Z,1008.22
2017-09-17T08:09:55.239Z,1008.19
2017-09-17T08:10:35.781Z,1008.15
2017-09-17T08:11:16.311Z,1008.19
2017-09-17T08:11:56.855Z,1008.18